sensor_id;sensor_type;location;lat;lon;timestamp;temperature;humidity
21646;DHT22;10984;45.712;4.800;2023-07-08T00:01:20;23.90;1.00
21646;DHT22;10984;45.712;4.800;2023-07-08T00:03:46;23.90;1.00
21646;DHT22;10984;45.712;4.800;2023-07-08T00:06:31;23.90;1.00
21646;DHT22;10984;45.712;4.800;2023-07-08T00:08:56;23.90;1.00
21646;DHT22;10984;45.712;4.800;2023-07-08T00:11:23;23.90;1.00
21646;DHT22;10984;45.712;4.800;2023-07-08T00:13:48;23.90;1.00
21646;DHT22;10984;45.712;4.800;2023-07-08T00:16:16;23.90;1.00
21646;DHT22;10984;45.712;4.800;2023-07-08T00:18:42;23.90;1.00
21646;DHT22;10984;45.712;4.800;2023-07-08T00:21:26;23.80;1.00
21646;DHT22;10984;45.712;4.800;2023-07-08T00:23:52;23.80;1.00
21646;DHT22;10984;45.712;4.800;2023-07-08T00:26:21;23.80;1.00
21646;DHT22;10984;45.712;4.800;2023-07-08T00:28:49;23.80;1.00
21646;DHT22;10984;45.712;4.800;2023-07-08T00:31:14;23.80;1.00
21646;DHT22;10984;45.712;4.800;2023-07-08T00:33:40;23.80;1.00
21646;DHT22;10984;45.712;4.800;2023-07-08T00:36:26;23.80;1.00
21646;DHT22;10984;45.712;4.800;2023-07-08T00:38:52;23.80;1.00
21646;DHT22;10984;45.712;4.800;2023-07-08T00:41:37;23.80;1.00
21646;DHT22;10984;45.712;4.800;2023-07-08T00:44:21;23.80;1.00
21646;DHT22;10984;45.712;4.800;2023-07-08T00:47:08;23.80;1.00
21646;DHT22;10984;45.712;4.800;2023-07-08T00:49:57;23.70;1.00
21646;DHT22;10984;45.712;4.800;2023-07-08T00:52:24;23.70;1.00
21646;DHT22;10984;45.712;4.800;2023-07-08T00:55:09;23.70;1.00
21646;DHT22;10984;45.712;4.800;2023-07-08T00:57:37;23.70;1.00
21646;DHT22;10984;45.712;4.800;2023-07-08T01:00:06;23.70;1.00
21646;DHT22;10984;45.712;4.800;2023-07-08T01:02:38;23.60;1.00
21646;DHT22;10984;45.712;4.800;2023-07-08T01:05:10;23.60;1.00
21646;DHT22;10984;45.712;4.800;2023-07-08T01:07:39;23.60;1.00
21646;DHT22;10984;45.712;4.800;2023-07-08T01:13:10;23.60;1.00
21646;DHT22;10984;45.712;4.800;2023-07-08T01:15:41;23.60;1.00
21646;DHT22;10984;45.712;4.800;2023-07-08T01:18:09;23.60;1.00
21646;DHT22;10984;45.712;4.800;2023-07-08T01:20:35;23.60;1.00
21646;DHT22;10984;45.712;4.800;2023-07-08T01:23:01;23.60;1.00
21646;DHT22;10984;45.712;4.800;2023-07-08T01:25:27;23.60;1.00
21646;DHT22;10984;45.712;4.800;2023-07-08T01:27:54;23.50;1.00
21646;DHT22;10984;45.712;4.800;2023-07-08T01:30:21;23.50;1.00
21646;DHT22;10984;45.712;4.800;2023-07-08T01:33:06;23.50;1.00
21646;DHT22;10984;45.712;4.800;2023-07-08T01:35:33;23.40;1.00
21646;DHT22;10984;45.712;4.800;2023-07-08T01:38:01;23.40;1.00
21646;DHT22;10984;45.712;4.800;2023-07-08T01:40:34;23.40;1.00
21646;DHT22;10984;45.712;4.800;2023-07-08T01:43:01;23.40;1.00
21646;DHT22;10984;45.712;4.800;2023-07-08T01:45:31;23.30;1.00
21646;DHT22;10984;45.712;4.800;2023-07-08T01:48:02;23.30;1.00
21646;DHT22;10984;45.712;4.800;2023-07-08T01:50:29;23.20;1.00
21646;DHT22;10984;45.712;4.800;2023-07-08T01:52:59;23.20;1.00
21646;DHT22;10984;45.712;4.800;2023-07-08T01:55:26;23.30;1.00
21646;DHT22;10984;45.712;4.800;2023-07-08T01:57:54;23.20;1.00
21646;DHT22;10984;45.712;4.800;2023-07-08T02:00:21;23.20;1.00
21646;DHT22;10984;45.712;4.800;2023-07-08T02:02:47;23.10;1.00
21646;DHT22;10984;45.712;4.800;2023-07-08T02:05:13;23.10;1.00
21646;DHT22;10984;45.712;4.800;2023-07-08T02:07:39;23.10;1.00
21646;DHT22;10984;45.712;4.800;2023-07-08T02:10:05;23.10;1.00
21646;DHT22;10984;45.712;4.800;2023-07-08T02:12:31;23.10;1.00
21646;DHT22;10984;45.712;4.800;2023-07-08T02:15:00;23.10;1.00
21646;DHT22;10984;45.712;4.800;2023-07-08T02:17:26;23.10;1.00
21646;DHT22;10984;45.712;4.800;2023-07-08T02:19:54;23.00;1.00
21646;DHT22;10984;45.712;4.800;2023-07-08T02:22:20;23.00;1.00
21646;DHT22;10984;45.712;4.800;2023-07-08T02:24:46;23.00;1.00
21646;DHT22;10984;45.712;4.800;2023-07-08T02:27:13;23.10;1.00
21646;DHT22;10984;45.712;4.800;2023-07-08T02:29:39;23.10;1.00
21646;DHT22;10984;45.712;4.800;2023-07-08T02:32:05;23.10;1.00
21646;DHT22;10984;45.712;4.800;2023-07-08T02:34:31;23.10;1.00
21646;DHT22;10984;45.712;4.800;2023-07-08T02:36:57;23.10;1.00
21646;DHT22;10984;45.712;4.800;2023-07-08T02:39:23;23.00;1.00
21646;DHT22;10984;45.712;4.800;2023-07-08T02:41:49;23.10;1.00
21646;DHT22;10984;45.712;4.800;2023-07-08T02:44:15;23.00;1.00
21646;DHT22;10984;45.712;4.800;2023-07-08T02:46:40;23.00;1.00
21646;DHT22;10984;45.712;4.800;2023-07-08T02:49:06;23.00;1.00
21646;DHT22;10984;45.712;4.800;2023-07-08T02:51:32;23.00;1.00
21646;DHT22;10984;45.712;4.800;2023-07-08T02:53:58;23.00;1.00
21646;DHT22;10984;45.712;4.800;2023-07-08T02:56:24;23.00;1.00
21646;DHT22;10984;45.712;4.800;2023-07-08T02:58:52;23.00;1.00
21646;DHT22;10984;45.712;4.800;2023-07-08T03:01:17;23.00;1.00
21646;DHT22;10984;45.712;4.800;2023-07-08T03:03:47;23.00;1.00
21646;DHT22;10984;45.712;4.800;2023-07-08T03:06:13;23.00;1.00
21646;DHT22;10984;45.712;4.800;2023-07-08T03:08:39;23.00;1.00
21646;DHT22;10984;45.712;4.800;2023-07-08T03:11:06;23.00;1.00
21646;DHT22;10984;45.712;4.800;2023-07-08T03:13:33;23.00;1.00
21646;DHT22;10984;45.712;4.800;2023-07-08T03:16:00;23.00;1.00
21646;DHT22;10984;45.712;4.800;2023-07-08T03:18:26;23.00;1.00
21646;DHT22;10984;45.712;4.800;2023-07-08T03:20:57;23.00;1.00
21646;DHT22;10984;45.712;4.800;2023-07-08T03:23:24;23.00;1.00
21646;DHT22;10984;45.712;4.800;2023-07-08T03:25:50;22.90;1.00
21646;DHT22;10984;45.712;4.800;2023-07-08T03:28:15;22.90;1.00
21646;DHT22;10984;45.712;4.800;2023-07-08T03:30:42;22.90;1.00
21646;DHT22;10984;45.712;4.800;2023-07-08T03:33:09;22.90;1.00
21646;DHT22;10984;45.712;4.800;2023-07-08T03:35:35;22.90;1.00
21646;DHT22;10984;45.712;4.800;2023-07-08T03:38:01;22.90;1.00
21646;DHT22;10984;45.712;4.800;2023-07-08T03:40:28;22.90;1.00
21646;DHT22;10984;45.712;4.800;2023-07-08T03:42:54;22.80;1.00
21646;DHT22;10984;45.712;4.800;2023-07-08T03:45:19;22.90;1.00
21646;DHT22;10984;45.712;4.800;2023-07-08T03:47:45;22.80;1.00
21646;DHT22;10984;45.712;4.800;2023-07-08T03:50:29;22.80;1.00
21646;DHT22;10984;45.712;4.800;2023-07-08T03:52:55;22.80;1.00
21646;DHT22;10984;45.712;4.800;2023-07-08T03:55:21;22.80;1.00
21646;DHT22;10984;45.712;4.800;2023-07-08T03:57:47;22.80;1.00
21646;DHT22;10984;45.712;4.800;2023-07-08T04:00:14;22.80;1.00
21646;DHT22;10984;45.712;4.800;2023-07-08T04:02:44;22.80;1.00
21646;DHT22;10984;45.712;4.800;2023-07-08T04:05:14;22.80;1.00
21646;DHT22;10984;45.712;4.800;2023-07-08T04:07:40;22.80;1.00
21646;DHT22;10984;45.712;4.800;2023-07-08T04:10:07;22.80;1.00
21646;DHT22;10984;45.712;4.800;2023-07-08T04:12:33;22.70;1.00
21646;DHT22;10984;45.712;4.800;2023-07-08T04:14:59;22.70;1.00
21646;DHT22;10984;45.712;4.800;2023-07-08T04:17:24;22.70;1.00
21646;DHT22;10984;45.712;4.800;2023-07-08T04:19:50;22.70;1.00
21646;DHT22;10984;45.712;4.800;2023-07-08T04:22:16;22.70;1.00
21646;DHT22;10984;45.712;4.800;2023-07-08T04:24:42;22.70;1.00
21646;DHT22;10984;45.712;4.800;2023-07-08T04:27:27;22.70;1.00
21646;DHT22;10984;45.712;4.800;2023-07-08T04:29:52;22.70;1.00
21646;DHT22;10984;45.712;4.800;2023-07-08T04:32:18;22.60;1.00
21646;DHT22;10984;45.712;4.800;2023-07-08T04:34:43;22.60;1.00
21646;DHT22;10984;45.712;4.800;2023-07-08T04:37:11;22.60;1.00
21646;DHT22;10984;45.712;4.800;2023-07-08T04:39:37;22.60;1.00
21646;DHT22;10984;45.712;4.800;2023-07-08T04:42:03;22.60;1.00
21646;DHT22;10984;45.712;4.800;2023-07-08T04:44:29;22.60;1.00
21646;DHT22;10984;45.712;4.800;2023-07-08T04:46:57;22.60;1.00
21646;DHT22;10984;45.712;4.800;2023-07-08T04:49:24;22.60;1.00
21646;DHT22;10984;45.712;4.800;2023-07-08T04:51:51;22.50;1.00
21646;DHT22;10984;45.712;4.800;2023-07-08T04:54:17;22.60;1.00
21646;DHT22;10984;45.712;4.800;2023-07-08T04:56:47;22.60;1.00
21646;DHT22;10984;45.712;4.800;2023-07-08T04:59:17;22.60;1.00
21646;DHT22;10984;45.712;4.800;2023-07-08T05:01:43;22.60;1.00
21646;DHT22;10984;45.712;4.800;2023-07-08T05:04:12;22.50;1.00
21646;DHT22;10984;45.712;4.800;2023-07-08T05:06:38;22.50;1.00
21646;DHT22;10984;45.712;4.800;2023-07-08T05:09:04;22.60;1.00
21646;DHT22;10984;45.712;4.800;2023-07-08T05:11:30;22.50;1.00
21646;DHT22;10984;45.712;4.800;2023-07-08T05:13:56;22.50;1.00
21646;DHT22;10984;45.712;4.800;2023-07-08T05:16:22;22.50;1.00
21646;DHT22;10984;45.712;4.800;2023-07-08T05:18:47;22.60;1.00
21646;DHT22;10984;45.712;4.800;2023-07-08T05:21:14;22.60;1.00
21646;DHT22;10984;45.712;4.800;2023-07-08T05:23:39;22.60;1.00
21646;DHT22;10984;45.712;4.800;2023-07-08T05:26:06;22.60;1.00
21646;DHT22;10984;45.712;4.800;2023-07-08T05:28:33;22.70;1.00
21646;DHT22;10984;45.712;4.800;2023-07-08T05:30:58;22.80;1.00
21646;DHT22;10984;45.712;4.800;2023-07-08T05:33:25;23.00;1.00
21646;DHT22;10984;45.712;4.800;2023-07-08T05:35:52;23.30;1.00
21646;DHT22;10984;45.712;4.800;2023-07-08T05:38:18;23.60;1.00
21646;DHT22;10984;45.712;4.800;2023-07-08T05:40:48;23.90;1.00
21646;DHT22;10984;45.712;4.800;2023-07-08T05:43:15;24.10;1.00
21646;DHT22;10984;45.712;4.800;2023-07-08T05:45:41;24.40;1.00
21646;DHT22;10984;45.712;4.800;2023-07-08T05:48:06;24.70;1.00
21646;DHT22;10984;45.712;4.800;2023-07-08T05:50:32;24.90;1.00
21646;DHT22;10984;45.712;4.800;2023-07-08T05:52:58;25.20;1.00
21646;DHT22;10984;45.712;4.800;2023-07-08T05:55:23;25.30;1.00
21646;DHT22;10984;45.712;4.800;2023-07-08T05:57:49;25.50;1.00
21646;DHT22;10984;45.712;4.800;2023-07-08T06:00:15;25.70;1.00
21646;DHT22;10984;45.712;4.800;2023-07-08T06:02:40;25.90;1.00
21646;DHT22;10984;45.712;4.800;2023-07-08T06:05:07;25.90;1.00
21646;DHT22;10984;45.712;4.800;2023-07-08T06:07:32;26.10;1.00
21646;DHT22;10984;45.712;4.800;2023-07-08T06:09:58;26.20;1.00
21646;DHT22;10984;45.712;4.800;2023-07-08T06:12:25;26.30;1.00
21646;DHT22;10984;45.712;4.800;2023-07-08T06:14:50;26.40;1.00
21646;DHT22;10984;45.712;4.800;2023-07-08T06:17:16;26.60;1.00
21646;DHT22;10984;45.712;4.800;2023-07-08T06:19:43;26.70;1.00
21646;DHT22;10984;45.712;4.800;2023-07-08T06:22:08;26.80;1.00
21646;DHT22;10984;45.712;4.800;2023-07-08T06:24:34;26.90;1.00
21646;DHT22;10984;45.712;4.800;2023-07-08T06:27:00;27.00;1.00
21646;DHT22;10984;45.712;4.800;2023-07-08T06:29:26;27.10;1.00
21646;DHT22;10984;45.712;4.800;2023-07-08T06:31:51;27.10;1.00
21646;DHT22;10984;45.712;4.800;2023-07-08T06:34:18;27.20;1.00
21646;DHT22;10984;45.712;4.800;2023-07-08T06:36:44;27.30;1.00
21646;DHT22;10984;45.712;4.800;2023-07-08T06:39:10;27.30;1.00
21646;DHT22;10984;45.712;4.800;2023-07-08T06:41:37;27.30;1.00
21646;DHT22;10984;45.712;4.800;2023-07-08T06:44:03;27.40;1.00
21646;DHT22;10984;45.712;4.800;2023-07-08T06:46:29;27.30;1.00
21646;DHT22;10984;45.712;4.800;2023-07-08T06:48:55;27.40;1.00
21646;DHT22;10984;45.712;4.800;2023-07-08T06:51:20;27.30;1.00
21646;DHT22;10984;45.712;4.800;2023-07-08T06:53:46;27.30;1.00
21646;DHT22;10984;45.712;4.800;2023-07-08T06:56:12;27.30;1.00
21646;DHT22;10984;45.712;4.800;2023-07-08T06:58:38;27.20;1.00
21646;DHT22;10984;45.712;4.800;2023-07-08T07:01:03;27.20;1.00
21646;DHT22;10984;45.712;4.800;2023-07-08T07:03:29;27.10;1.00
21646;DHT22;10984;45.712;4.800;2023-07-08T07:05:54;27.10;1.00
21646;DHT22;10984;45.712;4.800;2023-07-08T07:08:20;27.10;1.00
21646;DHT22;10984;45.712;4.800;2023-07-08T07:10:46;27.00;1.00
21646;DHT22;10984;45.712;4.800;2023-07-08T07:13:11;27.00;1.00
21646;DHT22;10984;45.712;4.800;2023-07-08T07:15:37;27.00;1.00
21646;DHT22;10984;45.712;4.800;2023-07-08T07:18:03;27.00;1.00
21646;DHT22;10984;45.712;4.800;2023-07-08T07:20:29;27.10;1.00
21646;DHT22;10984;45.712;4.800;2023-07-08T07:22:55;27.00;1.00
21646;DHT22;10984;45.712;4.800;2023-07-08T07:25:21;27.10;1.00
21646;DHT22;10984;45.712;4.800;2023-07-08T07:27:47;27.10;1.00
21646;DHT22;10984;45.712;4.800;2023-07-08T07:30:13;27.00;1.00
21646;DHT22;10984;45.712;4.800;2023-07-08T07:32:41;27.00;1.00
21646;DHT22;10984;45.712;4.800;2023-07-08T07:35:08;27.00;1.00
21646;DHT22;10984;45.712;4.800;2023-07-08T07:37:38;27.00;1.00
21646;DHT22;10984;45.712;4.800;2023-07-08T07:40:06;26.90;1.00
21646;DHT22;10984;45.712;4.800;2023-07-08T07:42:32;26.90;1.00
21646;DHT22;10984;45.712;4.800;2023-07-08T07:44:58;26.90;1.00
21646;DHT22;10984;45.712;4.800;2023-07-08T07:47:23;26.80;1.00
21646;DHT22;10984;45.712;4.800;2023-07-08T07:49:49;26.90;1.00
21646;DHT22;10984;45.712;4.800;2023-07-08T07:52:14;26.80;1.00
21646;DHT22;10984;45.712;4.800;2023-07-08T07:54:43;26.80;1.00
21646;DHT22;10984;45.712;4.800;2023-07-08T07:57:09;26.70;1.00
21646;DHT22;10984;45.712;4.800;2023-07-08T07:59:35;26.70;1.00
21646;DHT22;10984;45.712;4.800;2023-07-08T08:02:00;26.60;1.00
21646;DHT22;10984;45.712;4.800;2023-07-08T08:04:26;26.60;1.00
21646;DHT22;10984;45.712;4.800;2023-07-08T08:06:51;26.60;1.00
21646;DHT22;10984;45.712;4.800;2023-07-08T08:09:17;26.50;1.00
21646;DHT22;10984;45.712;4.800;2023-07-08T08:11:43;26.60;1.00
21646;DHT22;10984;45.712;4.800;2023-07-08T08:14:08;26.50;1.00
21646;DHT22;10984;45.712;4.800;2023-07-08T08:16:34;26.50;1.00
21646;DHT22;10984;45.712;4.800;2023-07-08T08:18:59;26.50;1.00
21646;DHT22;10984;45.712;4.800;2023-07-08T08:21:25;26.50;1.00
21646;DHT22;10984;45.712;4.800;2023-07-08T08:23:51;26.60;1.00
21646;DHT22;10984;45.712;4.800;2023-07-08T08:26:16;26.60;1.00
21646;DHT22;10984;45.712;4.800;2023-07-08T08:28:42;26.60;1.00
21646;DHT22;10984;45.712;4.800;2023-07-08T08:31:08;26.60;1.00
21646;DHT22;10984;45.712;4.800;2023-07-08T08:33:33;26.60;1.00
21646;DHT22;10984;45.712;4.800;2023-07-08T08:35:59;26.60;1.00
21646;DHT22;10984;45.712;4.800;2023-07-08T08:38:24;26.70;1.00
21646;DHT22;10984;45.712;4.800;2023-07-08T08:40:50;26.70;1.00
21646;DHT22;10984;45.712;4.800;2023-07-08T08:43:21;26.80;1.00
21646;DHT22;10984;45.712;4.800;2023-07-08T08:51:55;27.00;1.00
21646;DHT22;10984;45.712;4.800;2023-07-08T08:54:23;27.00;1.00
21646;DHT22;10984;45.712;4.800;2023-07-08T09:00:12;27.10;1.00
21646;DHT22;10984;45.712;4.800;2023-07-08T09:03:02;27.10;1.00
21646;DHT22;10984;45.712;4.800;2023-07-08T09:05:29;27.10;1.00
21646;DHT22;10984;45.712;4.800;2023-07-08T09:11:01;27.10;1.00
21646;DHT22;10984;45.712;4.800;2023-07-08T09:13:29;27.10;1.00
21646;DHT22;10984;45.712;4.800;2023-07-08T09:27:31;27.10;1.00
21646;DHT22;10984;45.712;4.800;2023-07-08T09:29:56;27.10;1.00
21646;DHT22;10984;45.712;4.800;2023-07-08T09:32:27;27.20;1.00
21646;DHT22;10984;45.712;4.800;2023-07-08T09:34:56;27.20;1.00
21646;DHT22;10984;45.712;4.800;2023-07-08T09:37:30;27.20;1.00
21646;DHT22;10984;45.712;4.800;2023-07-08T09:39:58;27.20;1.00
21646;DHT22;10984;45.712;4.800;2023-07-08T09:42:43;27.20;1.00
21646;DHT22;10984;45.712;4.800;2023-07-08T09:45:28;27.30;1.00
21646;DHT22;10984;45.712;4.800;2023-07-08T09:47:55;27.30;1.00
21646;DHT22;10984;45.712;4.800;2023-07-08T09:50:24;27.40;1.00
21646;DHT22;10984;45.712;4.800;2023-07-08T09:52:55;27.40;1.00
21646;DHT22;10984;45.712;4.800;2023-07-08T09:55:23;27.40;1.00
21646;DHT22;10984;45.712;4.800;2023-07-08T09:57:51;27.40;1.00
21646;DHT22;10984;45.712;4.800;2023-07-08T10:00:25;27.40;1.00
21646;DHT22;10984;45.712;4.800;2023-07-08T10:02:54;27.40;1.00
21646;DHT22;10984;45.712;4.800;2023-07-08T10:05:41;27.40;1.00
21646;DHT22;10984;45.712;4.800;2023-07-08T10:08:28;27.50;1.00
21646;DHT22;10984;45.712;4.800;2023-07-08T10:11:18;27.50;1.00
21646;DHT22;10984;45.712;4.800;2023-07-08T10:13:49;27.50;1.00
21646;DHT22;10984;45.712;4.800;2023-07-08T10:19:00;27.60;1.00
21646;DHT22;10984;45.712;4.800;2023-07-08T10:30:40;27.80;1.00
21646;DHT22;10984;45.712;4.800;2023-07-08T10:57:13;28.20;1.00
21646;DHT22;10984;45.712;4.800;2023-07-08T11:00:25;28.20;1.00
21646;DHT22;10984;45.712;4.800;2023-07-08T11:09:00;28.30;1.00
21646;DHT22;10984;45.712;4.800;2023-07-08T11:11:47;28.30;1.00
21646;DHT22;10984;45.712;4.800;2023-07-08T11:14:21;28.30;1.00
21646;DHT22;10984;45.712;4.800;2023-07-08T11:22:32;28.40;1.00
21646;DHT22;10984;45.712;4.800;2023-07-08T11:25:01;28.50;1.00
21646;DHT22;10984;45.712;4.800;2023-07-08T11:27:32;28.50;1.00
21646;DHT22;10984;45.712;4.800;2023-07-08T11:38:25;28.50;1.00
21646;DHT22;10984;45.712;4.800;2023-07-08T11:44:12;28.50;1.00
21646;DHT22;10984;45.712;4.800;2023-07-08T11:46:56;28.50;1.00
21646;DHT22;10984;45.712;4.800;2023-07-08T11:49:23;28.50;1.00
21646;DHT22;10984;45.712;4.800;2023-07-08T11:51:49;28.60;1.00
21646;DHT22;10984;45.712;4.800;2023-07-08T11:54:34;28.50;1.00
21646;DHT22;10984;45.712;4.800;2023-07-08T11:57:04;28.50;1.00
21646;DHT22;10984;45.712;4.800;2023-07-08T11:59:38;28.60;1.00
21646;DHT22;10984;45.712;4.800;2023-07-08T12:05:15;28.60;1.00
21646;DHT22;10984;45.712;4.800;2023-07-08T12:10:47;28.70;1.00
21646;DHT22;10984;45.712;4.800;2023-07-08T12:13:16;28.80;1.00
21646;DHT22;10984;45.712;4.800;2023-07-08T12:15:43;28.80;1.00
21646;DHT22;10984;45.712;4.800;2023-07-08T12:20:37;28.80;1.00
21646;DHT22;10984;45.712;4.800;2023-07-08T12:23:14;28.80;1.00
21646;DHT22;10984;45.712;4.800;2023-07-08T12:25:41;28.80;1.00
21646;DHT22;10984;45.712;4.800;2023-07-08T12:28:06;28.90;1.00
21646;DHT22;10984;45.712;4.800;2023-07-08T12:30:33;28.90;1.00
21646;DHT22;10984;45.712;4.800;2023-07-08T12:33:00;28.90;1.00
21646;DHT22;10984;45.712;4.800;2023-07-08T12:35:31;28.90;1.00
21646;DHT22;10984;45.712;4.800;2023-07-08T12:41:05;28.90;1.00
21646;DHT22;10984;45.712;4.800;2023-07-08T12:43:33;28.90;1.00
21646;DHT22;10984;45.712;4.800;2023-07-08T12:45:59;28.90;1.00
21646;DHT22;10984;45.712;4.800;2023-07-08T12:48:25;28.90;1.00
21646;DHT22;10984;45.712;4.800;2023-07-08T12:50:50;28.90;1.00
21646;DHT22;10984;45.712;4.800;2023-07-08T12:53:16;28.90;1.00
21646;DHT22;10984;45.712;4.800;2023-07-08T12:55:43;28.90;1.00
21646;DHT22;10984;45.712;4.800;2023-07-08T12:58:14;28.90;1.00
21646;DHT22;10984;45.712;4.800;2023-07-08T13:00:44;28.90;1.00
21646;DHT22;10984;45.712;4.800;2023-07-08T13:03:17;29.00;1.00
21646;DHT22;10984;45.712;4.800;2023-07-08T13:05:44;29.00;1.00
21646;DHT22;10984;45.712;4.800;2023-07-08T13:08:30;29.00;1.00
21646;DHT22;10984;45.712;4.800;2023-07-08T13:11:00;29.00;1.00
21646;DHT22;10984;45.712;4.800;2023-07-08T13:16:32;29.00;1.00
21646;DHT22;10984;45.712;4.800;2023-07-08T13:18:59;29.00;1.00
21646;DHT22;10984;45.712;4.800;2023-07-08T13:21:26;29.00;1.00
21646;DHT22;10984;45.712;4.800;2023-07-08T13:24:11;29.10;1.00
21646;DHT22;10984;45.712;4.800;2023-07-08T13:26:37;29.10;1.00
21646;DHT22;10984;45.712;4.800;2023-07-08T13:29:22;29.10;1.00
21646;DHT22;10984;45.712;4.800;2023-07-08T13:31:55;29.10;99.90
21646;DHT22;10984;45.712;4.800;2023-07-08T13:34:24;29.10;99.90
21646;DHT22;10984;45.712;4.800;2023-07-08T13:36:51;29.10;99.90
21646;DHT22;10984;45.712;4.800;2023-07-08T13:39:35;29.10;1.00
21646;DHT22;10984;45.712;4.800;2023-07-08T13:42:02;29.10;1.00
21646;DHT22;10984;45.712;4.800;2023-07-08T13:44:29;29.10;1.00
21646;DHT22;10984;45.712;4.800;2023-07-08T13:46:57;29.10;1.00
21646;DHT22;10984;45.712;4.800;2023-07-08T13:52:27;29.10;1.00
21646;DHT22;10984;45.712;4.800;2023-07-08T13:54:58;29.10;99.90
21646;DHT22;10984;45.712;4.800;2023-07-08T13:57:32;29.10;99.90
21646;DHT22;10984;45.712;4.800;2023-07-08T13:59:58;29.10;99.90
21646;DHT22;10984;45.712;4.800;2023-07-08T14:02:27;29.10;99.90
21646;DHT22;10984;45.712;4.800;2023-07-08T14:04:54;29.10;99.90
21646;DHT22;10984;45.712;4.800;2023-07-08T14:07:24;29.20;99.90
21646;DHT22;10984;45.712;4.800;2023-07-08T14:09:50;29.20;99.90
21646;DHT22;10984;45.712;4.800;2023-07-08T14:12:17;29.20;99.90
21646;DHT22;10984;45.712;4.800;2023-07-08T14:14:43;29.30;99.90
21646;DHT22;10984;45.712;4.800;2023-07-08T14:17:28;29.30;99.90
21646;DHT22;10984;45.712;4.800;2023-07-08T14:19:54;29.30;99.90
21646;DHT22;10984;45.712;4.800;2023-07-08T14:25:08;29.30;99.90
21646;DHT22;10984;45.712;4.800;2023-07-08T14:27:35;29.30;99.90
21646;DHT22;10984;45.712;4.800;2023-07-08T14:30:01;29.40;99.90
21646;DHT22;10984;45.712;4.800;2023-07-08T14:32:29;29.30;99.90
21646;DHT22;10984;45.712;4.800;2023-07-08T14:34:59;29.40;99.90
21646;DHT22;10984;45.712;4.800;2023-07-08T14:37:25;29.30;99.90
21646;DHT22;10984;45.712;4.800;2023-07-08T14:39:51;29.40;99.90
21646;DHT22;10984;45.712;4.800;2023-07-08T14:42:18;29.40;99.90
21646;DHT22;10984;45.712;4.800;2023-07-08T14:44:47;29.30;99.90
21646;DHT22;10984;45.712;4.800;2023-07-08T14:47:16;29.30;99.90
21646;DHT22;10984;45.712;4.800;2023-07-08T14:49:42;29.30;99.90
21646;DHT22;10984;45.712;4.800;2023-07-08T14:52:08;29.30;99.90
21646;DHT22;10984;45.712;4.800;2023-07-08T14:54:34;29.30;99.90
21646;DHT22;10984;45.712;4.800;2023-07-08T14:57:01;29.40;99.90
21646;DHT22;10984;45.712;4.800;2023-07-08T14:59:28;29.40;99.90
21646;DHT22;10984;45.712;4.800;2023-07-08T15:01:58;29.50;99.90
21646;DHT22;10984;45.712;4.800;2023-07-08T15:04:24;29.50;99.90
21646;DHT22;10984;45.712;4.800;2023-07-08T15:06:50;29.50;99.90
21646;DHT22;10984;45.712;4.800;2023-07-08T15:09:17;29.50;99.90
21646;DHT22;10984;45.712;4.800;2023-07-08T15:11:44;29.50;99.90
21646;DHT22;10984;45.712;4.800;2023-07-08T15:14:28;29.50;99.90
21646;DHT22;10984;45.712;4.800;2023-07-08T15:16:54;29.50;99.90
21646;DHT22;10984;45.712;4.800;2023-07-08T15:19:20;29.50;99.90
21646;DHT22;10984;45.712;4.800;2023-07-08T15:21:46;29.60;99.90
21646;DHT22;10984;45.712;4.800;2023-07-08T15:24:13;29.60;99.90
21646;DHT22;10984;45.712;4.800;2023-07-08T15:26:41;29.60;99.90
21646;DHT22;10984;45.712;4.800;2023-07-08T15:31:56;29.60;99.90
21646;DHT22;10984;45.712;4.800;2023-07-08T15:34:22;29.60;99.90
21646;DHT22;10984;45.712;4.800;2023-07-08T15:36:48;29.60;99.90
21646;DHT22;10984;45.712;4.800;2023-07-08T15:39:15;29.60;99.90
21646;DHT22;10984;45.712;4.800;2023-07-08T15:41:41;29.50;99.90
21646;DHT22;10984;45.712;4.800;2023-07-08T15:44:09;29.50;99.90
21646;DHT22;10984;45.712;4.800;2023-07-08T15:46:42;29.50;99.90
21646;DHT22;10984;45.712;4.800;2023-07-08T15:49:26;29.50;99.90
21646;DHT22;10984;45.712;4.800;2023-07-08T15:51:53;29.60;99.90
21646;DHT22;10984;45.712;4.800;2023-07-08T15:54:19;29.60;99.90
21646;DHT22;10984;45.712;4.800;2023-07-08T15:56:47;29.60;99.90
21646;DHT22;10984;45.712;4.800;2023-07-08T15:59:32;29.60;99.90
21646;DHT22;10984;45.712;4.800;2023-07-08T16:02:15;29.60;99.90
21646;DHT22;10984;45.712;4.800;2023-07-08T16:04:46;29.50;99.90
21646;DHT22;10984;45.712;4.800;2023-07-08T16:07:11;29.50;99.90
21646;DHT22;10984;45.712;4.800;2023-07-08T16:09:37;29.50;99.90
21646;DHT22;10984;45.712;4.800;2023-07-08T16:12:04;29.40;99.90
21646;DHT22;10984;45.712;4.800;2023-07-08T16:14:30;29.40;99.90
21646;DHT22;10984;45.712;4.800;2023-07-08T16:16:56;29.30;99.90
21646;DHT22;10984;45.712;4.800;2023-07-08T16:19:22;29.30;99.90
21646;DHT22;10984;45.712;4.800;2023-07-08T16:21:48;29.30;99.90
21646;DHT22;10984;45.712;4.800;2023-07-08T16:24:13;29.30;99.90
21646;DHT22;10984;45.712;4.800;2023-07-08T16:26:40;29.30;99.90
21646;DHT22;10984;45.712;4.800;2023-07-08T16:29:07;29.30;99.90
21646;DHT22;10984;45.712;4.800;2023-07-08T16:31:34;29.30;99.90
21646;DHT22;10984;45.712;4.800;2023-07-08T16:34:00;29.30;99.90
21646;DHT22;10984;45.712;4.800;2023-07-08T16:36:27;29.30;99.90
21646;DHT22;10984;45.712;4.800;2023-07-08T16:38:54;29.30;99.90
21646;DHT22;10984;45.712;4.800;2023-07-08T16:41:22;29.30;99.90
21646;DHT22;10984;45.712;4.800;2023-07-08T16:43:50;29.30;99.90
21646;DHT22;10984;45.712;4.800;2023-07-08T16:46:18;29.30;99.90
21646;DHT22;10984;45.712;4.800;2023-07-08T16:48:44;29.30;99.90
21646;DHT22;10984;45.712;4.800;2023-07-08T16:51:28;29.30;99.90
21646;DHT22;10984;45.712;4.800;2023-07-08T16:54:14;29.30;99.90
21646;DHT22;10984;45.712;4.800;2023-07-08T16:56:40;29.30;99.90
21646;DHT22;10984;45.712;4.800;2023-07-08T16:59:07;29.30;99.90
21646;DHT22;10984;45.712;4.800;2023-07-08T17:01:32;29.20;99.90
21646;DHT22;10984;45.712;4.800;2023-07-08T17:03:58;29.20;99.90
21646;DHT22;10984;45.712;4.800;2023-07-08T17:06:24;29.10;99.90
21646;DHT22;10984;45.712;4.800;2023-07-08T17:08:50;29.20;99.90
21646;DHT22;10984;45.712;4.800;2023-07-08T17:11:16;29.10;99.90
21646;DHT22;10984;45.712;4.800;2023-07-08T17:13:42;29.10;99.90
21646;DHT22;10984;45.712;4.800;2023-07-08T17:16:29;29.10;99.90
21646;DHT22;10984;45.712;4.800;2023-07-08T17:18:56;29.10;99.90
21646;DHT22;10984;45.712;4.800;2023-07-08T17:21:23;29.10;99.90
21646;DHT22;10984;45.712;4.800;2023-07-08T17:23:48;29.10;99.90
21646;DHT22;10984;45.712;4.800;2023-07-08T17:26:14;29.00;99.90
21646;DHT22;10984;45.712;4.800;2023-07-08T17:28:40;29.00;99.90
21646;DHT22;10984;45.712;4.800;2023-07-08T17:31:10;28.90;99.90
21646;DHT22;10984;45.712;4.800;2023-07-08T17:33:39;28.90;99.90
21646;DHT22;10984;45.712;4.800;2023-07-08T17:36:24;28.90;99.90
21646;DHT22;10984;45.712;4.800;2023-07-08T17:38:52;28.90;99.90
21646;DHT22;10984;45.712;4.800;2023-07-08T17:41:19;28.80;99.90